Time;durP1;ratioP1;P1;durP2;ratioP2;P2;SDS_P1;SDS_P2;PMS_P1;PMS_P2;Temp;Humidity;BMP_temperature;BMP_pressure;BME280_temperature;BME280_humidity;BME280_pressure;Samples;Min_cycle;Max_cycle;Signal;HPM_P1;HPM_P2
2022/03/23 00:01:15;;;;;;;12.88;9.73;;;;;;;20.38;30.55;102762.50;5134611;28;20383;-87
2022/03/23 00:03:43;;;;;;;11.30;9.30;;;;;;;20.38;30.35;102764.31;5136925;28;20070;-87
2022/03/23 00:06:13;;;;;;;11.80;9.60;;;;;;;20.37;30.47;102766.13;5117711;28;20047;-86
2022/03/23 00:08:40;;;;;;;12.15;9.73;;;;;;;20.37;30.52;102763.44;5136105;28;20051;-86
2022/03/23 00:11:08;;;;;;;9.57;8.52;;;;;;;20.36;30.47;102766.22;5135925;28;20039;-86
2022/03/23 00:13:36;;;;;;;10.57;8.80;;;;;;;20.35;30.39;102761.81;5118088;28;20054;-86
2022/03/23 00:16:04;;;;;;;14.02;9.90;;;;;;;20.36;30.39;102766.22;5117913;28;20050;-85
2022/03/23 00:18:32;;;;;;;11.88;9.38;;;;;;;20.35;30.36;102759.13;5135626;28;20043;-85
2022/03/23 00:21:00;;;;;;;16.77;9.80;;;;;;;20.34;30.38;102768.16;5135652;28;20409;-86
2022/03/23 00:23:27;;;;;;;12.43;9.90;;;;;;;20.33;30.49;102761.88;5135529;28;20050;-86
2022/03/23 00:25:55;;;;;;;11.13;9.93;;;;;;;20.33;30.41;102761.88;5134831;28;20108;-86
2022/03/23 00:28:23;;;;;;;9.95;8.77;;;;;;;20.34;30.31;102763.66;5117346;27;20487;-86
2022/03/23 00:30:51;;;;;;;11.60;9.18;;;;;;;20.33;30.22;102756.50;5139315;27;20070;-86
2022/03/23 00:33:37;;;;;;;11.25;8.98;;;;;;;20.32;30.43;102759.31;5139644;27;20108;-86
2022/03/23 00:36:07;;;;;;;9.85;8.85;;;;;;;20.31;30.13;102758.44;5139612;27;20046;-86
2022/03/23 00:38:35;;;;;;;10.70;9.60;;;;;;;20.32;30.25;102753.91;5120146;27;20517;-86
2022/03/23 00:41:03;;;;;;;11.32;9.27;;;;;;;20.31;30.33;102757.56;5139976;27;20382;-86
2022/03/23 00:43:31;;;;;;;10.20;9.10;;;;;;;20.30;30.42;102750.47;5139359;27;20055;-86
2022/03/23 00:45:59;;;;;;;11.52;10.05;;;;;;;20.28;30.11;102750.53;5138840;27;20054;-86
2022/03/23 00:48:27;;;;;;;10.23;9.15;;;;;;;20.30;30.22;102751.34;5121991;27;20047;-85
2022/03/23 00:50:56;;;;;;;9.80;8.80;;;;;;;20.29;30.30;102741.50;5118932;27;20081;-86
2022/03/23 00:53:24;;;;;;;11.63;10.43;;;;;;;20.28;30.24;102742.47;5138648;27;20050;-86
2022/03/23 00:55:53;;;;;;;9.80;8.80;;;;;;;20.28;30.18;102742.47;5120123;27;20069;-86
2022/03/23 00:58:22;;;;;;;11.10;9.30;;;;;;;20.29;30.46;102744.19;5139306;27;20039;-86
2022/03/23 01:00:50;;;;;;;11.15;9.52;;;;;;;20.28;30.43;102747.84;5138544;27;20043;-86
2022/03/23 01:03:19;;;;;;;10.00;9.00;;;;;;;20.29;30.23;102746.03;5118726;27;20050;-87
2022/03/23 01:05:47;;;;;;;9.52;8.60;;;;;;;20.28;30.43;102752.38;5120173;27;20046;-87
2022/03/23 01:08:14;;;;;;;10.38;8.77;;;;;;;20.29;30.35;102746.03;5123124;27;20050;-87
2022/03/23 01:10:43;;;;;;;10.02;9.05;;;;;;;20.28;30.35;102739.78;5120593;27;20039;-87
2022/03/23 01:13:10;;;;;;;8.98;8.07;;;;;;;20.28;30.25;102738.91;5138637;27;20047;-87
2022/03/23 01:15:38;;;;;;;9.60;8.60;;;;;;;20.28;30.47;102749.69;5119854;27;20062;-87
2022/03/23 01:18:06;;;;;;;9.65;8.75;;;;;;;20.27;30.33;102745.28;5119909;27;20058;-87
2022/03/23 01:20:34;;;;;;;8.88;7.97;;;;;;;20.27;30.42;102746.13;5120143;27;20054;-87
2022/03/23 01:23:02;;;;;;;12.20;9.43;;;;;;;20.27;30.22;102742.56;5119790;27;20047;-87
2022/03/23 01:25:29;;;;;;;9.80;8.70;;;;;;;20.27;30.47;102742.56;5103092;27;20051;-87
2022/03/23 01:27:58;;;;;;;10.25;9.15;;;;;;;20.26;30.54;102733.66;5119184;27;20050;-87
2022/03/23 01:30:26;;;;;;;9.10;8.20;;;;;;;20.27;30.33;102726.44;5102235;27;20051;-86
2022/03/23 01:32:53;;;;;;;9.63;8.63;;;;;;;20.27;30.45;102727.31;5120074;27;20043;-86
2022/03/23 01:35:21;;;;;;;10.43;9.32;;;;;;;20.25;30.48;102713.97;5119439;27;20205;-87
2022/03/23 01:37:48;;;;;;;9.27;8.38;;;;;;;20.26;30.36;102725.56;5119317;27;20035;-86
2022/03/23 01:40:16;;;;;;;11.30;8.80;;;;;;;20.26;30.23;102728.28;5118146;27;20047;-86
2022/03/23 01:42:44;;;;;;;9.80;8.80;;;;;;;20.25;30.26;102727.41;5102314;27;20058;-86
2022/03/23 01:45:11;;;;;;;9.93;8.48;;;;;;;20.25;30.66;102726.50;5118858;27;20061;-86
2022/03/23 01:47:39;;;;;;;10.57;8.70;;;;;;;20.25;30.38;102727.41;5137845;27;20039;-86
2022/03/23 01:50:08;;;;;;;9.80;8.80;;;;;;;20.25;30.37;102718.44;5138211;27;20054;-86
2022/03/23 01:52:37;;;;;;;10.68;8.82;;;;;;;20.25;30.18;102724.72;5101632;27;20482;-86
2022/03/23 01:55:09;;;;;;;10.27;8.75;;;;;;;20.25;30.37;102710.38;5117040;27;20051;-86
2022/03/23 01:57:39;;;;;;;8.63;7.82;;;;;;;20.24;30.37;102711.34;5118073;27;20058;-85
2022/03/23 02:00:08;;;;;;;9.00;8.10;;;;;;;20.25;30.28;102721.13;5103139;27;20059;-87
2022/03/23 02:02:41;;;;;;;9.52;8.63;;;;;;;20.24;30.17;102720.28;5153376;27;20043;-87
2022/03/23 02:05:14;;;;;;;9.05;8.15;;;;;;;20.23;30.40;102713.16;5119191;27;20066;-87
2022/03/23 02:08:02;;;;;;;9.40;8.45;;;;;;;20.23;30.54;102710.47;5117968;27;20062;-87
2022/03/23 02:10:31;;;;;;;8.77;7.90;;;;;;;20.24;30.40;102714.91;5116841;27;20058;-87
2022/03/23 02:13:09;;;;;;;10.23;9.20;;;;;;;20.23;30.32;102713.16;5117987;27;20051;-87
2022/03/23 02:15:38;;;;;;;9.63;8.52;;;;;;;20.23;30.44;102712.31;5117913;27;20061;-87
2022/03/23 02:18:06;;;;;;;10.00;8.45;;;;;;;20.24;30.37;102722.09;5138493;27;20051;-87
2022/03/23 02:20:36;;;;;;;8.55;7.75;;;;;;;20.23;30.54;102721.25;5119199;27;20058;-87
2022/03/23 02:23:05;;;;;;;9.40;8.20;;;;;;;20.23;30.38;102707.78;5102379;27;20054;-87
2022/03/23 02:25:33;;;;;;;8.52;7.68;;;;;;;20.23;30.56;102709.63;5118953;27;20043;-87
2022/03/23 02:28:01;;;;;;;8.88;8.07;;;;;;;20.22;30.49;102708.75;5119149;27;20043;-87
2022/03/23 02:30:28;;;;;;;9.07;7.60;;;;;;;20.23;30.36;102707.78;5137047;27;20413;-87
2022/03/23 02:32:59;;;;;;;9.25;8.35;;;;;;;20.21;30.30;102704.31;5099716;27;20054;-86
2022/03/23 02:35:27;;;;;;;9.50;8.02;;;;;;;20.22;30.37;102706.06;5119183;27;20047;-87
2022/03/23 02:37:54;;;;;;;8.93;7.90;;;;;;;20.21;30.45;102707.00;5136551;27;20493;-87
2022/03/23 02:40:22;;;;;;;9.07;8.10;;;;;;;20.21;30.51;102714.22;5118527;27;20054;-86
2022/03/23 02:42:49;;;;;;;9.63;8.63;;;;;;;20.21;30.50;102708.81;5117716;27;20035;-86
2022/03/23 02:45:18;;;;;;;9.98;8.07;;;;;;;20.21;30.54;102715.06;5117869;27;20043;-87
2022/03/23 02:47:45;;;;;;;8.13;7.32;;;;;;;20.21;30.71;102709.69;5118636;27;20054;-87
2022/03/23 02:50:13;;;;;;;8.60;7.70;;;;;;;20.20;30.50;102707.97;5137213;27;20161;-86
2022/03/23 03:01:52;;;;;;;10.40;8.00;;;;;;;20.20;30.40;102716.03;5118961;27;20043;-86
2022/03/23 03:03:59;;;;;;;8.57;7.68;;;;;;;20.19;30.51;102721.53;5136888;27;20047;-85
2022/03/23 03:06:27;;;;;;;9.38;8.23;;;;;;;20.18;30.74;102726.03;5117877;27;20043;-86
2022/03/23 03:08:54;;;;;;;8.75;7.38;;;;;;;20.19;30.62;102718.81;5136846;27;20046;-87
2022/03/23 03:11:23;;;;;;;8.50;7.70;;;;;;;20.17;30.42;102718.91;5117372;27;20410;-86
2022/03/23 03:13:51;;;;;;;7.93;6.90;;;;;;;20.17;30.60;102713.53;5119096;27;20066;-85
2022/03/23 03:16:20;;;;;;;9.07;7.57;;;;;;;20.18;30.47;102711.72;5101456;27;20497;-86
2022/03/23 03:18:47;;;;;;;8.82;7.93;;;;;;;20.18;30.64;102711.72;5117367;27;20490;-86
2022/03/23 03:21:16;;;;;;;9.85;7.97;;;;;;;20.17;30.60;102709.97;5136664;27;20070;-87
2022/03/23 03:23:46;;;;;;;8.23;7.38;;;;;;;20.17;30.52;102709.97;5136212;27;20040;-86
2022/03/23 03:26:15;;;;;;;8.60;7.75;;;;;;;20.17;30.63;102708.13;5118808;27;20043;-87
2022/03/23 03:28:44;;;;;;;9.30;7.90;;;;;;;20.17;30.73;102712.66;5115516;27;20047;-86
2022/03/23 03:31:13;;;;;;;8.50;7.57;;;;;;;20.16;30.41;102709.09;5116660;27;20376;-87
2022/03/23 03:33:41;;;;;;;13.55;7.75;;;;;;;20.16;30.70;102709.09;5118108;27;20047;-86
2022/03/23 03:36:09;;;;;;;8.10;7.30;;;;;;;20.15;30.73;102718.16;5137010;27;20050;-85
2022/03/23 03:38:38;;;;;;;8.98;8.02;;;;;;;20.16;30.53;102709.09;5136252;27;20046;-85
2022/03/23 03:41:06;;;;;;;9.30;8.07;;;;;;;20.16;30.60;102701.03;5118063;28;20043;-88
2022/03/23 03:43:33;;;;;;;10.00;8.38;;;;;;;20.16;30.55;102705.56;5116572;28;20065;-88
2022/03/23 03:46:02;;;;;;;8.98;8.07;;;;;;;20.15;30.55;102695.78;5133865;28;20043;-88
2022/03/23 03:48:29;;;;;;;9.38;7.70;;;;;;;20.15;30.64;102699.31;5099623;28;20486;-86
2022/03/23 03:50:59;;;;;;;7.75;7.00;;;;;;;20.16;30.70;102689.44;5135732;28;20043;-86
2022/03/23 03:53:26;;;;;;;9.10;7.55;;;;;;;20.14;30.63;102697.59;5116029;28;20047;-87
2022/03/23 03:56:06;;;;;;;8.50;7.70;;;;;;;20.15;30.68;102711.91;5119168;28;20065;-87
2022/03/23 03:58:33;;;;;;;8.52;7.63;;;;;;;20.14;30.72;102697.59;5115116;28;20413;-86
2022/03/23 04:01:00;;;;;;;7.82;6.50;;;;;;;20.14;30.63;102684.16;5117343;28;20055;-87
2022/03/23 04:03:28;;;;;;;8.95;8.05;;;;;;;20.13;30.51;102685.09;5118526;27;20047;-87
2022/03/23 04:05:55;;;;;;;8.98;7.65;;;;;;;20.13;30.58;102690.47;5121784;27;20051;-87
2022/03/23 04:08:23;;;;;;;8.32;7.38;;;;;;;20.13;30.60;102695.84;5140016;27;20039;-87
2022/03/23 04:10:51;;;;;;;8.70;7.53;;;;;;;20.13;30.34;102693.16;5138323;27;20054;-87
2022/03/23 04:13:18;;;;;;;7.75;6.95;;;;;;;20.13;30.45;102679.69;5103231;27;20043;-87
2022/03/23 04:15:46;;;;;;;8.02;7.22;;;;;;;20.12;30.47;102677.97;5120604;27;20122;-87
2022/03/23 04:18:13;;;;;;;8.05;7.15;;;;;;;20.13;30.34;102679.69;5121505;27;20066;-87
2022/03/23 04:20:40;;;;;;;9.57;7.90;;;;;;;20.12;30.43;102683.34;5140906;27;20066;-87
2022/03/23 04:23:08;;;;;;;11.85;7.90;;;;;;;20.12;30.50;102691.44;5139098;27;20039;-87
2022/03/23 04:25:35;;;;;;;8.55;7.68;;;;;;;20.13;30.50;102684.22;5139286;27;20047;-87
2022/03/23 04:28:03;;;;;;;8.25;7.03;;;;;;;20.11;30.62;102687.00;5120209;27;20062;-86
2022/03/23 04:30:32;;;;;;;8.48;7.40;;;;;;;20.11;30.50;102687.00;5139139;27;20050;-87
2022/03/23 04:33:00;;;;;;;7.95;7.13;;;;;;;20.12;30.62;102680.66;5120466;27;20047;-86
2022/03/23 04:35:28;;;;;;;8.40;7.47;;;;;;;20.12;30.56;102687.88;5139546;27;20050;-87
2022/03/23 04:37:56;;;;;;;8.00;7.20;;;;;;;20.11;30.53;102687.00;5120998;27;20051;-88
2022/03/23 04:40:24;;;;;;;7.45;6.75;;;;;;;20.12;30.49;102686.06;5104307;27;20399;-88
2022/03/23 04:42:51;;;;;;;9.65;8.20;;;;;;;20.11;30.52;102687.00;5121656;27;20050;-86
2022/03/23 04:45:19;;;;;;;7.50;6.80;;;;;;;20.10;30.43;102674.53;5120379;27;20054;-86
2022/03/23 04:47:47;;;;;;;8.82;7.80;;;;;;;20.12;30.30;102682.50;5139315;27;20051;-86
2022/03/23 04:50:16;;;;;;;9.52;7.55;;;;;;;20.11;30.76;102676.25;5139079;27;20047;-87
2022/03/23 04:52:46;;;;;;;9.55;7.03;;;;;;;20.11;30.82;102684.31;5138861;27;20039;-86
2022/03/23 04:55:15;;;;;;;8.13;7.28;;;;;;;20.12;30.74;102677.13;5120216;27;20051;-87
2022/03/23 04:57:43;;;;;;;8.57;7.30;;;;;;;20.11;30.81;102684.31;5139428;27;20078;-87
2022/03/23 05:00:15;;;;;;;8.15;6.82;;;;;;;20.11;30.89;102689.72;5119743;27;20074;-87
2022/03/23 05:02:45;;;;;;;8.35;7.32;;;;;;;20.11;30.85;102697.78;5120152;27;20391;-87
2022/03/23 05:05:13;;;;;;;8.25;7.40;;;;;;;20.11;30.81;102692.41;5139402;27;20035;-88
2022/03/23 05:07:42;;;;;;;8.98;8.05;;;;;;;20.12;30.72;102712.06;5120885;27;20403;-85
2022/03/23 05:10:12;;;;;;;8.55;7.50;;;;;;;20.09;30.63;102705.03;5139196;27;20050;-87
2022/03/23 05:12:41;;;;;;;8.27;6.95;;;;;;;20.09;30.55;102705.03;5138392;27;20043;-85
2022/03/23 05:15:10;;;;;;;8.50;7.63;;;;;;;20.08;30.47;102714.06;5137080;27;20066;-86
2022/03/23 05:17:38;;;;;;;8.15;7.35;;;;;;;20.08;30.38;102710.53;5120664;27;20039;-86
2022/03/23 05:20:07;;;;;;;8.20;7.30;;;;;;;20.07;30.53;102717.72;5120135;27;20059;-87
2022/03/23 05:22:37;;;;;;;8.43;7.60;;;;;;;20.05;30.58;102708.88;5119537;27;20054;-87
2022/03/23 05:25:06;;;;;;;8.07;7.28;;;;;;;20.07;30.64;102715.03;5119421;27;20073;-86
2022/03/23 05:27:34;;;;;;;8.18;7.38;;;;;;;20.07;30.56;102716.88;5137881;27;20039;-86
2022/03/23 05:30:04;;;;;;;8.55;7.65;;;;;;;20.06;30.63;102710.63;5139076;27;20043;-87
2022/03/23 05:32:31;;;;;;;7.68;6.80;;;;;;;20.06;30.78;102704.41;5139005;27;20047;-86
2022/03/23 05:34:59;;;;;;;8.05;7.25;;;;;;;20.05;30.59;102714.25;5138508;27;20474;-87
2022/03/23 05:37:26;;;;;;;8.05;7.25;;;;;;;20.06;30.60;102707.94;5102968;27;20051;-86
2022/03/23 05:39:53;;;;;;;9.32;7.38;;;;;;;20.05;30.76;102708.88;5119382;27;20055;-86
2022/03/23 05:42:21;;;;;;;7.85;7.05;;;;;;;20.06;30.81;102707.09;5138655;27;20050;-86
2022/03/23 05:44:49;;;;;;;9.98;7.35;;;;;;;20.05;30.54;102711.56;5138504;27;20043;-86
2022/03/23 05:47:16;;;;;;;9.25;7.55;;;;;;;20.03;30.81;102702.75;5137668;27;20062;-87
2022/03/23 05:49:43;;;;;;;9.00;7.28;;;;;;;20.05;30.78;102714.25;5120197;27;20047;-87
2022/03/23 05:52:11;;;;;;;7.80;7.00;;;;;;;20.05;30.64;102711.56;5119339;27;20047;-87
2022/03/23 05:54:39;;;;;;;8.25;7.38;;;;;;;20.04;30.43;102715.22;5138208;27;20482;-88
2022/03/23 05:57:06;;;;;;;9.85;6.63;;;;;;;20.04;30.52;102712.53;5119976;27;20403;-87
2022/03/23 05:59:34;;;;;;;7.85;6.82;;;;;;;20.05;30.54;102718.78;5138081;27;20509;-87
2022/03/23 06:02:01;;;;;;;8.48;7.30;;;;;;;20.05;30.65;102721.47;5119989;27;20047;-87
2022/03/23 06:04:28;;;;;;;7.25;6.55;;;;;;;20.04;30.57;102725.97;5119905;27;20039;-87
2022/03/23 06:06:56;;;;;;;8.80;7.18;;;;;;;20.04;30.33;102725.97;5119505;27;20047;-87
2022/03/23 06:09:23;;;;;;;9.32;7.07;;;;;;;20.06;30.02;102725.91;5119455;27;20039;-84
2022/03/23 06:11:51;;;;;;;7.68;6.93;;;;;;;20.05;30.27;102725.00;5119440;27;20043;-86
2022/03/23 06:14:19;;;;;;;8.52;6.93;;;;;;;20.07;30.13;102727.63;5119347;27;20035;-86
2022/03/23 06:16:46;;;;;;;7.45;6.68;;;;;;;20.08;29.68;102737.41;5118586;27;20058;-85
2022/03/23 06:19:14;;;;;;;8.55;7.75;;;;;;;20.07;29.95;102725.81;5137186;27;20050;-86
2022/03/23 06:21:41;;;;;;;8.55;7.75;;;;;;;20.09;29.89;102731.94;5119375;27;20046;-86
2022/03/23 06:24:09;;;;;;;8.07;7.30;;;;;;;20.09;29.69;102734.63;5119203;27;20047;-85
2022/03/23 06:26:36;;;;;;;8.43;7.03;;;;;;;20.09;29.79;102734.63;5136360;27;20043;-86
2022/03/23 06:29:04;;;;;;;7.20;6.43;;;;;;;20.11;29.78;102724.66;5137206;27;20050;-86
2022/03/23 06:31:37;;;;;;;7.85;7.03;;;;;;;20.12;29.72;102734.44;5137251;27;20051;-85
2022/03/23 06:34:05;;;;;;;9.27;7.88;;;;;;;20.13;29.71;102725.41;5136609;27;20046;-86
2022/03/23 06:36:32;;;;;;;7.68;6.88;;;;;;;20.14;29.58;102727.19;5136915;27;20422;-86
2022/03/23 06:38:59;;;;;;;9.45;7.18;;;;;;;20.15;29.66;102731.59;5118504;27;20043;-86
2022/03/23 06:41:27;;;;;;;8.63;6.65;;;;;;;20.16;29.81;102717.19;5118601;27;20044;-85
2022/03/23 06:43:54;;;;;;;8.02;7.18;;;;;;;20.18;29.53;102730.56;5118860;27;20047;-85
2022/03/23 06:46:22;;;;;;;10.02;7.82;;;;;;;20.19;29.69;102727.75;5117891;27;20074;-86
2022/03/23 06:48:49;;;;;;;8.25;7.45;;;;;;;20.19;29.72;102722.38;5137135;27;20097;-86
2022/03/23 06:51:17;;;;;;;9.48;6.93;;;;;;;20.20;29.61;102723.25;5137797;27;20046;-86
2022/03/23 06:53:44;;;;;;;8.02;6.25;;;;;;;20.22;29.74;102726.72;5118832;27;20035;-86
2022/03/23 06:56:12;;;;;;;7.30;6.57;;;;;;;20.22;29.77;102727.59;5117588;27;20047;-85
2022/03/23 06:58:39;;;;;;;9.02;7.30;;;;;;;20.24;29.84;102722.09;5118375;27;20487;-85
2022/03/23 07:01:07;;;;;;;7.30;6.60;;;;;;;20.23;29.62;102729.31;5136596;27;20062;-86
2022/03/23 07:03:34;;;;;;;8.25;7.03;;;;;;;20.25;29.83;102731.88;5136771;27;20050;-86
2022/03/23 07:06:03;;;;;;;6.82;6.13;;;;;;;20.26;29.88;102733.66;5116495;27;20047;-86
2022/03/23 07:11:16;;;;;;;7.55;6.15;;;;;;;20.27;29.98;102732.69;5136537;27;20054;-87
2022/03/23 07:13:44;;;;;;;9.13;6.22;;;;;;;20.28;29.67;102749.69;5117554;27;20047;-86
2022/03/23 07:16:11;;;;;;;9.70;6.72;;;;;;;20.28;29.77;102739.78;5136968;27;20058;-86
2022/03/23 07:18:39;;;;;;;7.70;6.75;;;;;;;20.29;29.65;102744.19;5134528;27;20054;-87
2022/03/23 07:21:07;;;;;;;6.68;5.95;;;;;;;20.30;30.06;102739.72;5137082;27;20071;-86
2022/03/23 07:23:35;;;;;;;8.98;6.93;;;;;;;20.31;30.21;102747.69;5101601;27;20058;-86
2022/03/23 07:26:04;;;;;;;8.98;6.15;;;;;;;20.32;30.05;102743.16;5136478;27;20043;-85
2022/03/23 07:28:31;;;;;;;7.38;6.63;;;;;;;20.33;30.37;102748.44;5135657;27;20043;-87
2022/03/23 07:30:59;;;;;;;6.43;5.80;;;;;;;20.34;30.13;102746.63;5116726;27;20051;-86
2022/03/23 07:33:28;;;;;;;7.20;6.45;;;;;;;20.34;30.31;102742.13;5117957;28;20058;-87
2022/03/23 07:35:56;;;;;;;9.68;6.40;;;;;;;20.35;30.28;102738.47;5117369;28;20054;-86
2022/03/23 07:38:24;;;;;;;10.15;6.68;;;;;;;20.38;30.74;102742.81;5099434;27;20047;-86
2022/03/23 07:40:52;;;;;;;8.30;6.45;;;;;;;20.38;30.42;102745.50;5135225;27;20047;-84
2022/03/23 07:43:20;;;;;;;8.52;6.45;;;;;;;20.39;30.44;102744.53;5134295;28;20046;-84
2022/03/23 07:45:47;;;;;;;7.40;6.30;;;;;;;20.40;30.39;102748.94;5135591;28;20402;-84
2022/03/23 07:48:16;;;;;;;7.30;5.97;;;;;;;20.40;30.48;102740.88;5135522;28;20051;-84
2022/03/23 07:50:43;;;;;;;7.57;6.45;;;;;;;20.42;30.47;102738.97;5135558;28;20050;-85
2022/03/23 07:53:11;;;;;;;8.13;6.18;;;;;;;20.43;30.33;102740.69;5117072;28;20406;-85
2022/03/23 07:55:38;;;;;;;6.07;5.47;;;;;;;20.43;30.95;102741.56;5135265;28;20042;-85
2022/03/23 07:58:06;;;;;;;8.10;7.30;;;;;;;20.44;30.06;102745.09;5116430;28;20058;-85
2022/03/23 08:00:33;;;;;;;9.20;8.13;;;;;;;20.43;29.04;102746.06;5106716;28;20055;-85
2022/03/23 08:03:01;;;;;;;10.60;9.43;;;;;;;20.38;26.89;102749.06;5113231;28;20047;-84
2022/03/23 08:05:30;;;;;;;11.70;9.88;;;;;;;20.36;26.59;102745.56;5037075;28;20049;-81
2022/03/23 08:07:58;;;;;;;11.70;9.77;;;;;;;20.35;26.20;102748.38;5010853;28;20038;-85
2022/03/23 08:10:25;;;;;;;10.73;9.45;;;;;;;20.33;26.43;102748.44;4994761;28;20049;-85
2022/03/23 08:12:53;;;;;;;11.82;9.35;;;;;;;20.33;26.16;102750.25;5012873;28;20489;-85
2022/03/23 08:15:24;;;;;;;11.82;10.65;;;;;;;20.31;25.07;102755.75;5012681;28;20049;-85
2022/03/23 08:17:51;;;;;;;13.43;10.57;;;;;;;20.29;24.82;102754.97;4977926;28;20054;-86
2022/03/23 08:20:35;;;;;;;12.80;11.50;;;;;;;20.29;24.69;102759.47;4993864;28;20060;-86
2022/03/23 08:23:09;;;;;;;11.95;9.38;;;;;;;20.29;24.93;102754.09;5012032;28;20069;-86
2022/03/23 08:25:38;;;;;;;13.55;10.93;;;;;;;20.29;24.76;102743.34;4994718;28;20401;-85
2022/03/23 08:28:06;;;;;;;12.13;10.85;;;;;;;20.28;24.98;102741.63;4994527;28;20061;-85
2022/03/23 08:30:34;;;;;;;11.95;10.75;;;;;;;20.29;25.47;102743.34;5012684;28;20050;-84
2022/03/23 08:33:02;;;;;;;13.05;10.63;;;;;;;20.32;25.75;102743.16;5012366;28;20053;-85
2022/03/23 08:35:35;;;;;;;13.13;11.00;;;;;;;20.35;25.38;102742.97;5012539;28;20038;-85
2022/03/23 08:38:04;;;;;;;11.15;9.52;;;;;;;20.36;25.77;102744.72;5011604;28;20046;-86
2022/03/23 08:40:33;;;;;;;11.48;10.05;;;;;;;20.40;26.10;102743.56;4994662;28;20049;-86
2022/03/23 08:43:02;;;;;;;10.35;9.32;;;;;;;20.40;26.46;102741.72;5012634;28;20046;-86
2022/03/23 08:45:29;;;;;;;13.18;9.45;;;;;;;20.39;25.56;102736.47;4994479;28;20042;-86
2022/03/23 08:47:57;;;;;;;10.32;9.25;;;;;;;20.41;25.60;102737.22;5011999;28;20075;-85
2022/03/23 08:50:25;;;;;;;10.02;9.02;;;;;;;20.39;25.69;102734.63;5013778;28;20046;-86
2022/03/23 08:52:53;;;;;;;10.70;9.63;;;;;;;20.41;25.51;102729.16;5015238;28;20049;-86
2022/03/23 08:55:23;;;;;;;13.68;10.98;;;;;;;20.39;25.35;102736.47;4997917;28;20389;-86
2022/03/23 08:57:50;;;;;;;12.45;10.27;;;;;;;20.42;26.07;102730.91;5015354;28;20046;-87
2022/03/23 09:00:18;;;;;;;12.32;10.60;;;;;;;20.43;25.97;102732.63;5001093;28;20501;-87
2022/03/23 09:02:45;;;;;;;12.52;11.13;;;;;;;20.46;25.02;102735.13;4996483;28;20050;-86
2022/03/23 09:05:14;;;;;;;12.18;10.95;;;;;;;20.45;24.67;102731.56;5014651;28;20528;-86
2022/03/23 09:07:42;;;;;;;13.85;10.65;;;;;;;20.48;25.33;102733.22;5015163;28;20049;-86
2022/03/23 09:10:13;;;;;;;12.23;9.77;;;;;;;20.49;26.05;102735.81;5014915;28;20054;-86
2022/03/23 09:12:42;;;;;;;10.00;9.00;;;;;;;20.50;26.67;102731.34;5013655;28;20067;-86
2022/03/23 09:15:12;;;;;;;15.18;10.60;;;;;;;20.51;26.65;102732.19;5014719;28;20053;-86
2022/03/23 09:17:40;;;;;;;9.55;8.63;;;;;;;20.50;26.81;102731.34;5015404;28;20116;-86
2022/03/23 09:20:10;;;;;;;10.63;9.57;;;;;;;20.51;26.85;102726.81;5013282;28;20076;-86
2022/03/23 09:22:40;;;;;;;10.85;9.13;;;;;;;20.51;26.03;102725.00;5015535;28;20057;-86
2022/03/23 09:25:11;;;;;;;11.98;9.65;;;;;;;20.53;25.76;102730.25;5014074;28;20060;-85
2022/03/23 09:27:42;;;;;;;11.07;9.82;;;;;;;20.52;25.84;102732.09;5012781;28;20041;-83
2022/03/23 09:30:11;;;;;;;12.10;9.77;;;;;;;20.53;26.42;102730.25;5039726;28;20418;-84
2022/03/23 09:32:39;;;;;;;10.05;8.90;;;;;;;20.53;27.06;102728.44;5116565;28;20092;-82
2022/03/23 09:35:08;;;;;;;14.13;10.98;;;;;;;20.53;26.53;102728.44;5116612;28;20058;-86
2022/03/23 09:37:48;;;;;;;13.52;11.90;;;;;;;20.52;25.99;102728.53;5117182;28;20047;-83
2022/03/23 09:40:25;;;;;;;13.35;10.23;;;;;;;20.54;26.77;102718.53;5097979;28;20074;-84
2022/03/23 09:43:08;;;;;;;14.47;11.90;;;;;;;20.54;26.82;102718.53;5115460;28;20379;-83
2022/03/23 09:48:12;;;;;;;13.05;11.15;;;;;;;20.57;26.81;102724.59;5116152;28;20042;-87
2022/03/23 09:50:42;;;;;;;12.90;10.48;;;;;;;20.57;27.32;102716.53;5115425;28;20048;-88
2022/03/23 09:53:11;;;;;;;10.18;9.18;;;;;;;20.58;27.36;102712.00;5114174;28;20521;-86
2022/03/23 09:55:38;;;;;;;11.32;9.80;;;;;;;20.59;27.39;102711.06;5116055;28;20141;-84
2022/03/23 09:58:06;;;;;;;12.90;9.77;;;;;;;20.59;27.66;102719.13;5078934;28;20076;-82
2022/03/23 10:00:37;;;;;;;12.18;10.88;;;;;;;20.59;27.62;102709.25;5010628;28;20061;-83
2022/03/23 10:03:15;;;;;;;13.20;10.77;;;;;;;20.61;27.39;102704.59;5012898;28;20046;-86
2022/03/23 10:06:13;;;;;;;13.38;12.05;;;;;;;20.63;27.03;102707.22;5011659;28;20046;-87
2022/03/23 10:09:10;;;;;;;12.05;9.93;;;;;;;20.63;27.63;102700.00;4996089;28;20050;-85
2022/03/23 10:12:11;;;;;;;11.77;10.57;;;;;;;20.64;26.41;102693.66;5012237;28;20057;-87
2022/03/23 10:14:45;;;;;;;12.73;9.73;;;;;;;20.64;27.48;102690.13;5013733;28;20050;-85
2022/03/23 10:17:37;;;;;;;11.73;10.43;;;;;;;20.63;27.55;102694.63;5012484;28;20041;-85
2022/03/23 10:20:05;;;;;;;12.02;9.10;;;;;;;20.63;27.43;102683.88;5011869;28;20057;-86
2022/03/23 10:22:32;;;;;;;10.43;9.43;;;;;;;20.63;27.40;102683.88;5014172;28;20053;-88
2022/03/23 10:25:08;;;;;;;14.00;8.93;;;;;;;20.63;27.43;102689.25;5012927;28;20053;-83
2022/03/23 10:27:36;;;;;;;10.02;8.98;;;;;;;20.63;27.53;102689.25;5013889;28;20046;-88
2022/03/23 10:30:04;;;;;;;14.07;11.02;;;;;;;20.64;27.20;102687.41;5011888;28;20046;-84
2022/03/23 10:32:36;;;;;;;10.02;9.02;;;;;;;20.65;27.54;102681.06;5012159;28;20045;-85
2022/03/23 10:35:09;;;;;;;10.65;9.40;;;;;;;20.64;27.32;102682.03;5013481;28;20053;-87
2022/03/23 10:37:37;;;;;;;12.48;11.27;;;;;;;20.65;26.63;102675.69;5011294;28;20054;-86
2022/03/23 10:40:10;;;;;;;12.65;10.35;;;;;;;20.64;26.89;102680.22;5012772;28;20046;-84
2022/03/23 10:42:40;;;;;;;11.77;10.68;;;;;;;20.64;27.38;102669.44;5013377;28;20049;-84
2022/03/23 10:45:18;;;;;;;11.52;10.15;;;;;;;20.66;27.29;102675.63;5011620;28;20390;-85
2022/03/23 10:47:47;;;;;;;13.38;12.10;;;;;;;20.63;25.35;102670.41;5012631;28;20049;-88
2022/03/23 10:50:26;;;;;;;11.98;10.88;;;;;;;20.62;26.18;102671.38;5011867;28;20053;-87
2022/03/23 10:53:01;;;;;;;17.50;14.18;;;;;;;20.65;24.87;102670.31;5012450;28;20046;-85
2022/03/23 10:55:47;;;;;;;11.35;10.15;;;;;;;20.66;26.77;102666.66;5011447;28;20045;-79
2022/03/23 10:58:25;;;;;;;12.27;10.10;;;;;;;20.65;26.78;102668.47;5012092;28;20046;-80
2022/03/23 11:00:56;;;;;;;16.08;14.38;;;;;;;20.61;23.76;102658.00;5003417;28;20062;-82
2022/03/23 11:03:40;;;;;;;14.63;12.20;;;;;;;20.56;24.98;102654.75;5012230;28;20053;-83
2022/03/23 11:06:13;;;;;;;11.43;10.40;;;;;;;20.57;25.82;102654.63;5012826;28;20038;-84
2022/03/23 11:08:43;;;;;;;10.80;9.75;;;;;;;20.57;26.21;102646.56;4994681;28;20412;-85
2022/03/23 11:16:48;;;;;;;11.73;9.73;;;;;;;20.61;26.82;102636.47;4977253;28;20062;-83
2022/03/23 11:19:24;;;;;;;10.75;9.45;;;;;;;20.60;26.87;102624.84;5012897;28;20052;-88
2022/03/23 11:22:06;;;;;;;10.80;9.80;;;;;;;20.62;26.78;102627.44;5011863;28;20042;-82
2022/03/23 11:24:36;;;;;;;11.52;9.85;;;;;;;20.61;26.83;102626.56;4975235;28;20057;-83
2022/03/23 11:27:06;;;;;;;11.45;10.25;;;;;;;20.63;27.03;102619.28;4992312;28;20117;-84
2022/03/23 11:29:37;;;;;;;11.98;9.35;;;;;;;20.64;27.06;102623.69;4992864;28;20405;-83
2022/03/23 11:32:10;;;;;;;10.80;9.52;;;;;;;20.63;26.72;102621.97;4993498;28;20053;-84
2022/03/23 11:34:39;;;;;;;9.07;8.15;;;;;;;20.65;26.85;102625.41;4975630;28;20062;-89
2022/03/23 11:37:07;;;;;;;10.75;9.15;;;;;;;20.64;26.61;102612.94;4991115;28;20051;-84
2022/03/23 11:39:36;;;;;;;11.38;9.27;;;;;;;20.65;26.47;102603.88;4992051;28;20046;-81
2022/03/23 11:42:05;;;;;;;10.65;8.43;;;;;;;20.65;26.38;102608.41;4991632;28;20046;-83
2022/03/23 11:44:36;;;;;;;10.23;9.27;;;;;;;20.66;25.76;102596.66;4991112;28;20053;-80
2022/03/23 11:47:20;;;;;;;10.25;9.10;;;;;;;20.65;26.38;102587.75;4991274;28;20053;-80
2022/03/23 11:50:03;;;;;;;9.70;8.68;;;;;;;20.67;26.63;102587.66;4991632;28;20350;-86